sensor_id;sensor_type;location;lat;lon;timestamp;pressure;altitude;pressure_sealevel;temperature;humidity
65800;BME280;52544;48.116;11.660;2023-07-31T00:01:10;95776.78;;;18.02;100.00
65800;BME280;52544;48.116;11.660;2023-07-31T00:03:35;95774.94;;;18.03;100.00
65800;BME280;52544;48.116;11.660;2023-07-31T00:06:01;95773.28;;;18.02;100.00
65800;BME280;52544;48.116;11.660;2023-07-31T00:08:26;95773.28;;;18.02;100.00
65800;BME280;52544;48.116;11.660;2023-07-31T00:10:52;95776.81;;;17.94;100.00
65800;BME280;52544;48.116;11.660;2023-07-31T00:13:18;95770.13;;;17.90;100.00
65800;BME280;52544;48.116;11.660;2023-07-31T00:15:43;95767.28;;;17.91;100.00
65800;BME280;52544;48.116;11.660;2023-07-31T00:18:09;95765.78;;;17.89;100.00
65800;BME280;52544;48.116;11.660;2023-07-31T00:20:34;95760.59;;;17.87;100.00
65800;BME280;52544;48.116;11.660;2023-07-31T00:22:59;95765.81;;;17.81;100.00
65800;BME280;52544;48.116;11.660;2023-07-31T00:25:25;95760.78;;;17.78;100.00
65800;BME280;52544;48.116;11.660;2023-07-31T00:27:50;95769.00;;;17.76;100.00
65800;BME280;52544;48.116;11.660;2023-07-31T00:30:16;95765.94;;;17.71;100.00
65800;BME280;52544;48.116;11.660;2023-07-31T00:32:41;95767.28;;;17.67;100.00
65800;BME280;52544;48.116;11.660;2023-07-31T00:35:07;95760.28;;;17.66;100.00
65800;BME280;52544;48.116;11.660;2023-07-31T00:37:32;95760.78;;;17.61;100.00
65800;BME280;52544;48.116;11.660;2023-07-31T00:39:58;95753.78;;;17.60;100.00
65800;BME280;52544;48.116;11.660;2023-07-31T00:42:24;95752.25;;;17.58;100.00
65800;BME280;52544;48.116;11.660;2023-07-31T00:44:49;95762.47;;;17.54;100.00
65800;BME280;52544;48.116;11.660;2023-07-31T00:47:14;95760.97;;;17.52;100.00
65800;BME280;52544;48.116;11.660;2023-07-31T00:49:40;95753.13;;;17.50;100.00
65800;BME280;52544;48.116;11.660;2023-07-31T00:52:06;95753.81;;;17.44;100.00
65800;BME280;52544;48.116;11.660;2023-07-31T00:54:31;95752.97;;;17.43;100.00
65800;BME280;52544;48.116;11.660;2023-07-31T00:56:57;95749.13;;;17.38;100.00
65800;BME280;52544;48.116;11.660;2023-07-31T00:59:22;95751.13;;;17.36;100.00
65800;BME280;52544;48.116;11.660;2023-07-31T01:01:48;95749.78;;;17.32;100.00
65800;BME280;52544;48.116;11.660;2023-07-31T01:04:14;95749.78;;;17.32;100.00
65800;BME280;52544;48.116;11.660;2023-07-31T01:09:37;95739.78;;;17.26;100.00
65800;BME280;52544;48.116;11.660;2023-07-31T01:12:06;95741.44;;;17.27;100.00
65800;BME280;52544;48.116;11.660;2023-07-31T01:14:32;95736.78;;;17.20;100.00
65800;BME280;52544;48.116;11.660;2023-07-31T01:16:57;95730.09;;;17.16;100.00
65800;BME280;52544;48.116;11.660;2023-07-31T01:19:24;95729.09;;;17.17;100.00
65800;BME280;52544;48.116;11.660;2023-07-31T01:24:44;95723.88;;;17.16;100.00
65800;BME280;52544;48.116;11.660;2023-07-31T01:27:15;95725.09;;;17.13;100.00
65800;BME280;52544;48.116;11.660;2023-07-31T01:30:05;95724.06;;;17.14;100.00
65800;BME280;52544;48.116;11.660;2023-07-31T01:32:39;95720.56;;;17.14;100.00
65800;BME280;52544;48.116;11.660;2023-07-31T01:35:06;95720.88;;;17.19;100.00
65800;BME280;52544;48.116;11.660;2023-07-31T01:37:31;95715.72;;;17.17;100.00
65800;BME280;52544;48.116;11.660;2023-07-31T01:39:57;95711.22;;;17.18;100.00
65800;BME280;52544;48.116;11.660;2023-07-31T01:42:22;95711.22;;;17.18;100.00
65800;BME280;52544;48.116;11.660;2023-07-31T01:44:48;95713.69;;;17.19;100.00
65800;BME280;52544;48.116;11.660;2023-07-31T01:47:13;95711.03;;;17.19;100.00
65800;BME280;52544;48.116;11.660;2023-07-31T01:49:38;95709.03;;;17.21;100.00
65800;BME280;52544;48.116;11.660;2023-07-31T01:52:04;95709.03;;;17.21;100.00
65800;BME280;52544;48.116;11.660;2023-07-31T01:54:29;95706.00;;;17.24;100.00
65800;BME280;52544;48.116;11.660;2023-07-31T01:56:55;95712.03;;;17.27;100.00
65800;BME280;52544;48.116;11.660;2023-07-31T01:59:20;95701.50;;;17.25;100.00
65800;BME280;52544;48.116;11.660;2023-07-31T02:01:46;95705.16;;;17.24;100.00
65800;BME280;52544;48.116;11.660;2023-07-31T02:04:11;95697.00;;;17.26;100.00
65800;BME280;52544;48.116;11.660;2023-07-31T02:06:37;95703.19;;;17.26;100.00
65800;BME280;52544;48.116;11.660;2023-07-31T02:09:03;95705.16;;;17.24;100.00
65800;BME280;52544;48.116;11.660;2023-07-31T02:11:28;95701.50;;;17.25;100.00
65800;BME280;52544;48.116;11.660;2023-07-31T02:13:54;95698.84;;;17.25;100.00
65800;BME280;52544;48.116;11.660;2023-07-31T02:16:19;95695.97;;;17.27;100.00
65800;BME280;52544;48.116;11.660;2023-07-31T02:18:44;95704.19;;;17.25;100.00
65800;BME280;52544;48.116;11.660;2023-07-31T02:21:10;95690.81;;;17.25;100.00
65800;BME280;52544;48.116;11.660;2023-07-31T02:23:35;95688.78;;;17.27;100.00
65800;BME280;52544;48.116;11.660;2023-07-31T02:26:01;95684.13;;;17.29;100.00
65800;BME280;52544;48.116;11.660;2023-07-31T02:28:26;95682.28;;;17.30;100.00
65800;BME280;52544;48.116;11.660;2023-07-31T02:30:51;95678.94;;;17.28;100.00
65800;BME280;52544;48.116;11.660;2023-07-31T02:33:17;95677.25;;;17.27;100.00
65800;BME280;52544;48.116;11.660;2023-07-31T02:35:42;95678.94;;;17.28;100.00
65800;BME280;52544;48.116;11.660;2023-07-31T02:38:08;95674.41;;;17.28;100.00
65800;BME280;52544;48.116;11.660;2023-07-31T02:40:36;95675.22;;;17.29;100.00
65800;BME280;52544;48.116;11.660;2023-07-31T02:43:01;95666.56;;;17.27;100.00
65800;BME280;52544;48.116;11.660;2023-07-31T02:45:26;95672.25;;;17.23;100.00
65800;BME280;52544;48.116;11.660;2023-07-31T02:47:52;95667.91;;;17.22;100.00
65800;BME280;52544;48.116;11.660;2023-07-31T02:50:17;95669.25;;;17.18;100.00
65800;BME280;52544;48.116;11.660;2023-07-31T02:52:42;95663.91;;;17.18;100.00
65800;BME280;52544;48.116;11.660;2023-07-31T02:55:08;95659.72;;;17.16;100.00
65800;BME280;52544;48.116;11.660;2023-07-31T02:57:33;95664.22;;;17.15;100.00
65800;BME280;52544;48.116;11.660;2023-07-31T02:59:59;95660.91;;;17.13;100.00
65800;BME280;52544;48.116;11.660;2023-07-31T03:02:24;95654.22;;;17.09;100.00
65800;BME280;52544;48.116;11.660;2023-07-31T03:04:50;95662.59;;;17.06;100.00
65800;BME280;52544;48.116;11.660;2023-07-31T03:07:15;95665.56;;;17.03;100.00
65800;BME280;52544;48.116;11.660;2023-07-31T03:09:40;95656.91;;;17.01;100.00
65800;BME280;52544;48.116;11.660;2023-07-31T03:12:06;95651.75;;;16.99;100.00
65800;BME280;52544;48.116;11.660;2023-07-31T03:14:32;95652.72;;;16.98;100.00
65800;BME280;52544;48.116;11.660;2023-07-31T03:16:57;95655.91;;;16.94;100.00
65800;BME280;52544;48.116;11.660;2023-07-31T03:19:22;95654.56;;;16.90;100.00
65800;BME280;52544;48.116;11.660;2023-07-31T03:21:48;95661.44;;;16.84;100.00
65800;BME280;52544;48.116;11.660;2023-07-31T03:24:13;95654.75;;;16.80;100.00
65800;BME280;52544;48.116;11.660;2023-07-31T03:26:39;95646.56;;;16.82;100.00
65800;BME280;52544;48.116;11.660;2023-07-31T03:29:06;95650.56;;;16.78;100.00
65800;BME280;52544;48.116;11.660;2023-07-31T03:31:32;95653.22;;;16.78;100.00
65800;BME280;52544;48.116;11.660;2023-07-31T03:33:57;95658.09;;;16.74;100.00
65800;BME280;52544;48.116;11.660;2023-07-31T03:36:22;95658.41;;;16.71;100.00
65800;BME280;52544;48.116;11.660;2023-07-31T03:38:48;95664.75;;;16.70;100.00
65800;BME280;52544;48.116;11.660;2023-07-31T03:41:13;95664.56;;;16.63;100.00
65800;BME280;52544;48.116;11.660;2023-07-31T03:43:39;95662.72;;;16.64;100.00
65800;BME280;52544;48.116;11.660;2023-07-31T03:46:04;95667.41;;;16.62;100.00
65800;BME280;52544;48.116;11.660;2023-07-31T03:48:29;95658.56;;;16.61;100.00
65800;BME280;52544;48.116;11.660;2023-07-31T03:50:55;95661.56;;;16.58;100.00
65800;BME280;52544;48.116;11.660;2023-07-31T03:53:20;95668.06;;;16.56;100.00
65800;BME280;52544;48.116;11.660;2023-07-31T03:55:46;95670.41;;;16.50;100.00
65800;BME280;52544;48.116;11.660;2023-07-31T03:58:11;95666.22;;;16.48;100.00
65800;BME280;52544;48.116;11.660;2023-07-31T04:00:37;95674.59;;;16.45;100.00
65800;BME280;52544;48.116;11.660;2023-07-31T04:03:02;95671.22;;;16.43;100.00
65800;BME280;52544;48.116;11.660;2023-07-31T04:05:30;95664.03;;;16.43;100.00
65800;BME280;52544;48.116;11.660;2023-07-31T04:07:55;95666.88;;;16.42;100.00
65800;BME280;52544;48.116;11.660;2023-07-31T04:10:20;95669.22;;;16.37;100.00
65800;BME280;52544;48.116;11.660;2023-07-31T04:12:46;95667.56;;;16.36;100.00
65800;BME280;52544;48.116;11.660;2023-07-31T04:15:11;95667.38;;;16.37;100.00
65800;BME280;52544;48.116;11.660;2023-07-31T04:17:36;95661.34;;;16.35;100.00
65800;BME280;52544;48.116;11.660;2023-07-31T04:20:02;95661.53;;;16.34;100.00
65800;BME280;52544;48.116;11.660;2023-07-31T04:22:28;95665.03;;;16.34;100.00
65800;BME280;52544;48.116;11.660;2023-07-31T04:24:53;95666.88;;;16.34;100.00
65800;BME280;52544;48.116;11.660;2023-07-31T04:27:19;95664.53;;;16.31;100.00
65800;BME280;52544;48.116;11.660;2023-07-31T04:29:44;95657.19;;;16.33;100.00
65800;BME280;52544;48.116;11.660;2023-07-31T04:32:11;95666.88;;;16.34;100.00
65800;BME280;52544;48.116;11.660;2023-07-31T04:34:36;95663.38;;;16.33;100.00
65800;BME280;52544;48.116;11.660;2023-07-31T04:37:02;95658.53;;;16.37;100.00
65800;BME280;52544;48.116;11.660;2023-07-31T04:39:27;95658.53;;;16.37;100.00
65800;BME280;52544;48.116;11.660;2023-07-31T04:41:52;95653.84;;;16.39;100.00
65800;BME280;52544;48.116;11.660;2023-07-31T04:44:18;95657.03;;;16.42;100.00
65800;BME280;52544;48.116;11.660;2023-07-31T04:46:43;95650.88;;;16.42;100.00
65800;BME280;52544;48.116;11.660;2023-07-31T04:49:09;95644.50;;;16.43;100.00
65800;BME280;52544;48.116;11.660;2023-07-31T04:51:34;95646.22;;;16.44;100.00
65800;BME280;52544;48.116;11.660;2023-07-31T04:53:59;95645.84;;;16.47;100.00
65800;BME280;52544;48.116;11.660;2023-07-31T04:56:25;95648.53;;;16.47;100.00
65800;BME280;52544;48.116;11.660;2023-07-31T04:58:50;95642.19;;;16.48;100.00
65800;BME280;52544;48.116;11.660;2023-07-31T05:01:15;95640.38;;;16.48;100.00
65800;BME280;52544;48.116;11.660;2023-07-31T05:03:41;95643.03;;;16.48;100.00
65800;BME280;52544;48.116;11.660;2023-07-31T05:06:06;95647.88;;;16.53;100.00
65800;BME280;52544;48.116;11.660;2023-07-31T05:08:32;95640.53;;;16.55;100.00
65800;BME280;52544;48.116;11.660;2023-07-31T05:10:58;95640.53;;;16.55;100.00
65800;BME280;52544;48.116;11.660;2023-07-31T05:13:24;95646.03;;;16.62;100.00
65800;BME280;52544;48.116;11.660;2023-07-31T05:15:49;95644.19;;;16.62;100.00
65800;BME280;52544;48.116;11.660;2023-07-31T05:18:15;95643.88;;;16.65;100.00
65800;BME280;52544;48.116;11.660;2023-07-31T05:20:40;95641.22;;;16.65;100.00
65800;BME280;52544;48.116;11.660;2023-07-31T05:23:06;95653.75;;;16.73;100.00
65800;BME280;52544;48.116;11.660;2023-07-31T05:25:32;95653.09;;;16.79;100.00
65800;BME280;52544;48.116;11.660;2023-07-31T05:27:57;95659.78;;;16.83;100.00
65800;BME280;52544;48.116;11.660;2023-07-31T05:30:22;95663.59;;;16.89;100.00
65800;BME280;52544;48.116;11.660;2023-07-31T05:32:48;95655.91;;;16.94;100.00
65800;BME280;52544;48.116;11.660;2023-07-31T05:35:13;95652.41;;;17.02;100.00
65800;BME280;52544;48.116;11.660;2023-07-31T05:37:38;95653.41;;;17.09;100.00
65800;BME280;52544;48.116;11.660;2023-07-31T05:40:04;95647.53;;;17.13;100.00
65800;BME280;52544;48.116;11.660;2023-07-31T05:42:30;95650.34;;;17.20;100.00
65800;BME280;52544;48.116;11.660;2023-07-31T05:44:55;95644.00;;;17.29;100.00
65800;BME280;52544;48.116;11.660;2023-07-31T05:47:21;95644.97;;;17.36;100.00
65800;BME280;52544;48.116;11.660;2023-07-31T05:49:46;95645.47;;;17.40;100.00
65800;BME280;52544;48.116;11.660;2023-07-31T05:52:11;95640.44;;;17.45;100.00
65800;BME280;52544;48.116;11.660;2023-07-31T05:54:37;95641.75;;;17.49;100.00
65800;BME280;52544;48.116;11.660;2023-07-31T05:57:02;95645.41;;;17.56;100.00
65800;BME280;52544;48.116;11.660;2023-07-31T05:59:28;95638.03;;;17.58;100.00
65800;BME280;52544;48.116;11.660;2023-07-31T06:01:53;95650.94;;;17.63;100.00
65800;BME280;52544;48.116;11.660;2023-07-31T06:04:19;95641.69;;;17.65;100.00
65800;BME280;52544;48.116;11.660;2023-07-31T06:06:44;95645.53;;;17.71;100.00
65800;BME280;52544;48.116;11.660;2023-07-31T06:09:09;95643.84;;;17.78;100.00
65800;BME280;52544;48.116;11.660;2023-07-31T06:11:35;95632.81;;;17.81;100.00
65800;BME280;52544;48.116;11.660;2023-07-31T06:14:00;95625.56;;;17.90;100.00
65800;BME280;52544;48.116;11.660;2023-07-31T06:16:26;95627.72;;;17.94;100.00
65800;BME280;52544;48.116;11.660;2023-07-31T06:18:52;95627.50;;;18.04;100.00
65800;BME280;52544;48.116;11.660;2023-07-31T06:21:17;95640.00;;;18.12;100.00
65800;BME280;52544;48.116;11.660;2023-07-31T06:23:43;95639.78;;;18.21;100.00
65800;BME280;52544;48.116;11.660;2023-07-31T06:26:08;95643.91;;;18.32;100.00
65800;BME280;52544;48.116;11.660;2023-07-31T06:28:34;95648.38;;;18.40;100.00
65800;BME280;52544;48.116;11.660;2023-07-31T06:30:59;95648.38;;;18.40;100.00
65800;BME280;52544;48.116;11.660;2023-07-31T06:33:26;95649.31;;;18.47;100.00
65800;BME280;52544;48.116;11.660;2023-07-31T06:35:51;95654.69;;;18.47;100.00
65800;BME280;52544;48.116;11.660;2023-07-31T06:38:23;95656.19;;;18.49;100.00
65800;BME280;52544;48.116;11.660;2023-07-31T06:40:49;95639.91;;;18.51;100.00
65800;BME280;52544;48.116;11.660;2023-07-31T06:43:14;95641.94;;;18.49;100.00
65800;BME280;52544;48.116;11.660;2023-07-31T06:45:40;95646.97;;;18.52;100.00
65800;BME280;52544;48.116;11.660;2023-07-31T06:48:05;95643.63;;;18.50;100.00
65800;BME280;52544;48.116;11.660;2023-07-31T06:50:31;95640.75;;;18.52;100.00
65800;BME280;52544;48.116;11.660;2023-07-31T06:52:57;95652.00;;;18.47;100.00
65800;BME280;52544;48.116;11.660;2023-07-31T06:55:22;95643.63;;;18.50;100.00
65800;BME280;52544;48.116;11.660;2023-07-31T06:57:49;95640.59;;;18.53;100.00
65800;BME280;52544;48.116;11.660;2023-07-31T07:00:15;95640.41;;;18.55;100.00
65800;BME280;52544;48.116;11.660;2023-07-31T07:02:41;95630.16;;;18.58;100.00
65800;BME280;52544;48.116;11.660;2023-07-31T07:05:07;95627.75;;;18.63;100.00
65800;BME280;52544;48.116;11.660;2023-07-31T07:07:33;95627.38;;;18.75;100.00
65800;BME280;52544;48.116;11.660;2023-07-31T07:09:59;95626.50;;;18.82;100.00
65800;BME280;52544;48.116;11.660;2023-07-31T07:12:29;95621.22;;;18.89;100.00
65800;BME280;52544;48.116;11.660;2023-07-31T07:14:55;95628.25;;;18.90;100.00
65800;BME280;52544;48.116;11.660;2023-07-31T07:17:21;95631.13;;;18.88;100.00
65800;BME280;52544;48.116;11.660;2023-07-31T07:19:47;95626.56;;;18.89;100.00
65800;BME280;52544;48.116;11.660;2023-07-31T07:22:13;95632.28;;;18.86;100.00
65800;BME280;52544;48.116;11.660;2023-07-31T07:24:38;95628.63;;;18.87;100.00
65800;BME280;52544;48.116;11.660;2023-07-31T07:27:04;95626.94;;;18.86;100.00
65800;BME280;52544;48.116;11.660;2023-07-31T07:29:29;95625.56;;;18.90;100.00
65800;BME280;52544;48.116;11.660;2023-07-31T07:31:55;95630.75;;;18.91;100.00
65800;BME280;52544;48.116;11.660;2023-07-31T07:34:24;95626.22;;;18.92;100.00
65800;BME280;52544;48.116;11.660;2023-07-31T07:36:49;95623.34;;;18.93;100.00
65800;BME280;52544;48.116;11.660;2023-07-31T07:39:14;95625.88;;;18.95;100.00
65800;BME280;52544;48.116;11.660;2023-07-31T07:41:40;95619.28;;;18.97;100.00
65800;BME280;52544;48.116;11.660;2023-07-31T07:44:06;95625.13;;;19.01;100.00
65800;BME280;52544;48.116;11.660;2023-07-31T07:46:31;95619.69;;;19.09;100.00
65800;BME280;52544;48.116;11.660;2023-07-31T07:48:56;95612.13;;;19.13;100.00
65800;BME280;52544;48.116;11.660;2023-07-31T07:51:22;95616.94;;;19.17;100.00
65800;BME280;52544;48.116;11.660;2023-07-31T07:53:47;95617.00;;;19.24;100.00
65800;BME280;52544;48.116;11.660;2023-07-31T07:56:12;95605.00;;;19.35;100.00
65800;BME280;52544;48.116;11.660;2023-07-31T07:58:38;95592.78;;;19.47;100.00
65800;BME280;52544;48.116;11.660;2023-07-31T08:01:03;95593.53;;;19.56;100.00
65800;BME280;52544;48.116;11.660;2023-07-31T08:03:29;95595.13;;;19.65;100.00
65800;BME280;52544;48.116;11.660;2023-07-31T08:05:58;95579.09;;;19.71;100.00
65800;BME280;52544;48.116;11.660;2023-07-31T08:08:24;95579.47;;;19.68;100.00
65800;BME280;52544;48.116;11.660;2023-07-31T08:10:49;95583.19;;;19.67;100.00
65800;BME280;52544;48.116;11.660;2023-07-31T08:13:14;95587.78;;;19.73;100.00
65800;BME280;52544;48.116;11.660;2023-07-31T08:15:43;95582.13;;;19.83;100.00
65800;BME280;52544;48.116;11.660;2023-07-31T08:18:09;95588.63;;;19.89;100.00
65800;BME280;52544;48.116;11.660;2023-07-31T08:20:35;95589.69;;;19.94;100.00
65800;BME280;52544;48.116;11.660;2023-07-31T08:23:00;95587.09;;;20.01;100.00
65800;BME280;52544;48.116;11.660;2023-07-31T08:25:25;95591.50;;;20.09;100.00
65800;BME280;52544;48.116;11.660;2023-07-31T08:27:51;95586.59;;;20.12;100.00
65800;BME280;52544;48.116;11.660;2023-07-31T08:30:18;95591.97;;;20.12;100.00
65800;BME280;52544;48.116;11.660;2023-07-31T08:32:44;95587.25;;;20.14;100.00
65800;BME280;52544;48.116;11.660;2023-07-31T08:35:09;95579.19;;;20.14;100.00
65800;BME280;52544;48.116;11.660;2023-07-31T08:37:34;95594.53;;;20.20;100.00
65800;BME280;52544;48.116;11.660;2023-07-31T08:40:00;95588.41;;;20.27;100.00
65800;BME280;52544;48.116;11.660;2023-07-31T08:42:26;95584.88;;;20.26;100.00
65800;BME280;52544;48.116;11.660;2023-07-31T08:44:52;95579.91;;;20.23;100.00
65800;BME280;52544;48.116;11.660;2023-07-31T08:47:19;95588.13;;;20.21;100.00
65800;BME280;52544;48.116;11.660;2023-07-31T08:49:46;95583.34;;;20.17;100.00
65800;BME280;52544;48.116;11.660;2023-07-31T08:52:12;95581.22;;;20.12;100.00
65800;BME280;52544;48.116;11.660;2023-07-31T08:54:37;95586.59;;;20.12;100.00
65800;BME280;52544;48.116;11.660;2023-07-31T08:57:04;95580.75;;;20.09;100.00
65800;BME280;52544;48.116;11.660;2023-07-31T08:59:31;95579.94;;;20.08;100.00
65800;BME280;52544;48.116;11.660;2023-07-31T09:02:05;95583.19;;;20.04;100.00
65800;BME280;52544;48.116;11.660;2023-07-31T09:04:32;95582.34;;;20.03;100.00
65800;BME280;52544;48.116;11.660;2023-07-31T09:07:00;95577.34;;;20.00;100.00
65800;BME280;52544;48.116;11.660;2023-07-31T09:09:26;95576.47;;;19.93;100.00
65800;BME280;52544;48.116;11.660;2023-07-31T09:11:52;95576.47;;;19.93;100.00
65800;BME280;52544;48.116;11.660;2023-07-31T09:14:18;95586.66;;;19.97;100.00
65800;BME280;52544;48.116;11.660;2023-07-31T09:16:54;95581.91;;;20.00;100.00
65800;BME280;52544;48.116;11.660;2023-07-31T09:19:33;95579.94;;;20.08;100.00
65800;BME280;52544;48.116;11.660;2023-07-31T09:21:59;95575.84;;;20.12;100.00
65800;BME280;52544;48.116;11.660;2023-07-31T09:24:29;95567.88;;;20.19;100.00
65800;BME280;52544;48.116;11.660;2023-07-31T09:26:56;95566.91;;;20.27;100.00
65800;BME280;52544;48.116;11.660;2023-07-31T09:29:22;95561.78;;;20.32;100.00
65800;BME280;52544;48.116;11.660;2023-07-31T09:31:48;95563.31;;;20.41;100.00
65800;BME280;52544;48.116;11.660;2023-07-31T09:34:13;95562.53;;;20.47;100.00
65800;BME280;52544;48.116;11.660;2023-07-31T09:36:49;95569.50;;;20.56;100.00
65800;BME280;52544;48.116;11.660;2023-07-31T09:39:16;95570.13;;;20.58;100.00
65800;BME280;52544;48.116;11.660;2023-07-31T09:41:45;95568.59;;;20.70;100.00
65800;BME280;52544;48.116;11.660;2023-07-31T09:44:11;95559.09;;;20.75;100.00
65800;BME280;52544;48.116;11.660;2023-07-31T09:46:37;95557.31;;;20.82;100.00
65800;BME280;52544;48.116;11.660;2023-07-31T09:49:10;95554.66;;;20.88;100.00
65800;BME280;52544;48.116;11.660;2023-07-31T09:51:37;95557.19;;;20.96;100.00
65800;BME280;52544;48.116;11.660;2023-07-31T09:54:15;95549.44;;;21.08;100.00
65800;BME280;52544;48.116;11.660;2023-07-31T09:56:45;95549.94;;;21.25;100.00
65800;BME280;52544;48.116;11.660;2023-07-31T09:59:20;95545.88;;;21.36;100.00
65800;BME280;52544;48.116;11.660;2023-07-31T10:01:46;95535.56;;;21.39;100.00
65800;BME280;52544;48.116;11.660;2023-07-31T10:04:13;95523.41;;;21.50;100.00
65800;BME280;52544;48.116;11.660;2023-07-31T10:06:40;95522.81;;;21.55;100.00
65800;BME280;52544;48.116;11.660;2023-07-31T10:09:07;95518.28;;;21.68;100.00
65800;BME280;52544;48.116;11.660;2023-07-31T10:11:51;95516.69;;;21.81;100.00
65800;BME280;52544;48.116;11.660;2023-07-31T10:14:19;95514.44;;;21.98;100.00
65800;BME280;52544;48.116;11.660;2023-07-31T10:16:45;95506.84;;;22.14;100.00
65800;BME280;52544;48.116;11.660;2023-07-31T10:19:11;95495.66;;;22.24;100.00
65800;BME280;52544;48.116;11.660;2023-07-31T10:21:37;95496.91;;;22.28;97.68
65800;BME280;52544;48.116;11.660;2023-07-31T10:24:06;95496.06;;;22.34;97.82
65800;BME280;52544;48.116;11.660;2023-07-31T10:26:32;95481.38;;;22.37;98.40
65800;BME280;52544;48.116;11.660;2023-07-31T10:28:59;95480.31;;;22.38;98.41
65800;BME280;52544;48.116;11.660;2023-07-31T10:31:27;95476.38;;;22.54;100.00
65800;BME280;52544;48.116;11.660;2023-07-31T10:33:54;95475.97;;;22.70;100.00
65800;BME280;52544;48.116;11.660;2023-07-31T10:36:21;95474.50;;;22.81;98.05
65800;BME280;52544;48.116;11.660;2023-07-31T10:38:49;95477.63;;;22.91;97.31
65800;BME280;52544;48.116;11.660;2023-07-31T10:41:16;95472.59;;;23.14;96.70
65800;BME280;52544;48.116;11.660;2023-07-31T10:43:41;95471.94;;;23.26;90.91
65800;BME280;52544;48.116;11.660;2023-07-31T10:46:16;95463.63;;;23.27;90.49
65800;BME280;52544;48.116;11.660;2023-07-31T10:48:42;95469.47;;;23.17;85.53
65800;BME280;52544;48.116;11.660;2023-07-31T10:51:08;95480.91;;;23.13;90.08
65800;BME280;52544;48.116;11.660;2023-07-31T10:53:40;95475.94;;;23.10;90.67
65800;BME280;52544;48.116;11.660;2023-07-31T10:56:09;95472.03;;;22.99;97.31
65800;BME280;52544;48.116;11.660;2023-07-31T10:58:38;95477.59;;;22.84;92.20
65800;BME280;52544;48.116;11.660;2023-07-31T11:01:04;95468.72;;;22.70;90.89
65800;BME280;52544;48.116;11.660;2023-07-31T11:03:47;95467.28;;;22.48;95.03
65800;BME280;52544;48.116;11.660;2023-07-31T11:06:15;95462.50;;;22.37;95.22
65800;BME280;52544;48.116;11.660;2023-07-31T11:08:48;95455.03;;;22.39;98.97
65800;BME280;52544;48.116;11.660;2023-07-31T11:11:16;95457.50;;;22.47;91.12
65800;BME280;52544;48.116;11.660;2023-07-31T11:13:44;95454.19;;;22.78;87.20
65800;BME280;52544;48.116;11.660;2023-07-31T11:16:12;95448.31;;;23.14;91.12
65800;BME280;52544;48.116;11.660;2023-07-31T11:18:42;95443.47;;;23.36;90.20
65800;BME280;52544;48.116;11.660;2023-07-31T11:21:19;95438.59;;;23.52;89.85
65800;BME280;52544;48.116;11.660;2023-07-31T11:23:52;95437.31;;;23.61;87.98
65800;BME280;52544;48.116;11.660;2023-07-31T11:26:19;95444.00;;;23.58;90.34
65800;BME280;52544;48.116;11.660;2023-07-31T11:28:48;95441.78;;;23.35;81.47
65800;BME280;52544;48.116;11.660;2023-07-31T11:31:13;95443.91;;;23.27;85.71
65800;BME280;52544;48.116;11.660;2023-07-31T11:33:38;95432.09;;;23.21;92.96
65800;BME280;52544;48.116;11.660;2023-07-31T11:36:04;95433.75;;;23.22;94.49
65800;BME280;52544;48.116;11.660;2023-07-31T11:38:32;95433.22;;;23.52;89.91
65800;BME280;52544;48.116;11.660;2023-07-31T11:41:02;95426.41;;;23.87;85.73
65800;BME280;52544;48.116;11.660;2023-07-31T11:43:29;95422.06;;;24.11;82.05
65800;BME280;52544;48.116;11.660;2023-07-31T11:45:56;95418.25;;;24.26;82.90
65800;BME280;52544;48.116;11.660;2023-07-31T11:48:27;95413.56;;;24.39;81.63
65800;BME280;52544;48.116;11.660;2023-07-31T11:51:07;95408.56;;;24.43;85.00
65800;BME280;52544;48.116;11.660;2023-07-31T11:54:01;95409.94;;;24.52;84.33
65800;BME280;52544;48.116;11.660;2023-07-31T11:56:27;95397.56;;;24.81;75.65
65800;BME280;52544;48.116;11.660;2023-07-31T11:58:58;95389.56;;;25.11;75.62
65800;BME280;52544;48.116;11.660;2023-07-31T12:01:24;95388.97;;;25.28;71.51
65800;BME280;52544;48.116;11.660;2023-07-31T12:03:51;95376.56;;;25.50;68.05
65800;BME280;52544;48.116;11.660;2023-07-31T12:06:17;95374.06;;;25.67;70.49
65800;BME280;52544;48.116;11.660;2023-07-31T12:08:42;95378.41;;;25.68;66.32
65800;BME280;52544;48.116;11.660;2023-07-31T12:11:09;95367.41;;;25.81;65.37
65800;BME280;52544;48.116;11.660;2023-07-31T12:13:35;95364.97;;;26.03;67.31
65800;BME280;52544;48.116;11.660;2023-07-31T12:16:02;95363.94;;;26.04;70.65
65800;BME280;52544;48.116;11.660;2023-07-31T12:18:30;95349.34;;;26.17;68.82
65800;BME280;52544;48.116;11.660;2023-07-31T12:21:00;95345.81;;;26.28;66.10
65800;BME280;52544;48.116;11.660;2023-07-31T12:23:27;95348.16;;;26.25;69.87
65800;BME280;52544;48.116;11.660;2023-07-31T12:26:03;95341.19;;;26.29;63.39
65800;BME280;52544;48.116;11.660;2023-07-31T12:28:28;95343.84;;;26.47;65.57
65800;BME280;52544;48.116;11.660;2023-07-31T12:30:59;95337.66;;;26.40;54.54
65800;BME280;52544;48.116;11.660;2023-07-31T12:33:31;95328.50;;;26.53;67.13
65800;BME280;52544;48.116;11.660;2023-07-31T12:35:56;95326.00;;;26.75;69.15
65800;BME280;52544;48.116;11.660;2023-07-31T12:38:22;95332.25;;;26.87;63.39
65800;BME280;52544;48.116;11.660;2023-07-31T12:40:47;95334.41;;;26.61;65.45
65800;BME280;52544;48.116;11.660;2023-07-31T12:43:13;95321.75;;;26.43;62.07
65800;BME280;52544;48.116;11.660;2023-07-31T12:45:38;95313.97;;;26.24;72.51